Time,TemperatureF,DewpointF,PressureIn,WindDirection,WindDirectionDegrees,WindSpeedMPH,WindSpeedGustMPH,Humidity,HourlyPrecipIn,Conditions,Clouds,dailyrainin,SoftwareType,DateUTC
2013-04-27 00:01:00,47.1,44.6,30.14,SE,135,2.0,5.0,91,0.02,,,1.25,meteohub,2013-04-27 05:01:00,
2013-04-27 00:06:00,47.1,44.6,30.14,ESE,113,5.0,5.0,91,0.00,,,0.00,meteohub,2013-04-27 05:06:00,
2013-04-27 00:11:00,47.1,44.6,30.14,SE,135,3.0,5.0,91,0.00,,,0.00,meteohub,2013-04-27 05:11:00,
2013-04-27 00:16:00,47.1,44.6,30.14,SSE,158,2.0,6.0,91,0.00,,,0.00,meteohub,2013-04-27 05:16:00,
2013-04-27 00:22:00,47.3,44.8,30.13,ESE,113,3.0,6.0,91,0.00,,,0.00,meteohub,2013-04-27 05:22:00,
2013-04-27 00:27:00,47.3,44.8,30.13,SSE,158,3.0,5.0,91,0.00,,,0.00,meteohub,2013-04-27 05:27:00,
2013-04-27 00:31:00,47.3,44.8,30.13,West,270,3.0,7.0,91,0.00,,,0.00,meteohub,2013-04-27 05:31:00,
2013-04-27 00:37:00,47.5,45.0,30.13,SE,135,6.0,7.0,91,0.00,,,0.00,meteohub,2013-04-27 05:37:00,
2013-04-27 00:42:00,47.3,44.8,30.13,SE,135,5.0,6.0,91,0.00,,,0.00,meteohub,2013-04-27 05:42:00,
2013-04-27 00:47:00,47.5,45.0,30.12,ESE,113,3.0,6.0,91,0.00,,,0.00,meteohub,2013-04-27 05:47:00,
2013-04-27 00:52:00,47.7,45.1,30.12,ESE,113,4.0,6.0,91,0.00,,,0.00,meteohub,2013-04-27 05:52:00,
2013-04-27 00:57:00,47.7,45.1,30.12,ESE,113,5.0,5.0,91,0.00,,,0.00,meteohub,2013-04-27 05:57:00,
2013-04-27 01:02:00,47.7,45.1,30.10,ESE,113,3.0,5.0,91,0.00,,,0.00,meteohub,2013-04-27 06:02:00,
2013-04-27 01:07:00,47.5,45.0,30.10,SE,135,3.0,5.0,91,0.00,,,0.00,meteohub,2013-04-27 06:07:00,
2013-04-27 01:12:00,47.7,45.1,30.10,South,180,3.0,5.0,91,0.00,,,0.00,meteohub,2013-04-27 06:12:00,
2013-04-27 01:17:00,47.7,45.1,30.10,ESE,113,7.0,7.0,91,0.00,,,0.00,meteohub,2013-04-27 06:17:00,
2013-04-27 01:22:00,47.7,45.1,30.10,SW,225,5.0,7.0,91,0.00,,,0.00,meteohub,2013-04-27 06:22:00,
2013-04-27 01:27:00,47.8,45.3,30.10,SE,135,7.0,7.0,91,0.00,,,0.00,meteohub,2013-04-27 06:27:00,
2013-04-27 01:32:00,47.8,45.3,30.10,ESE,113,5.0,7.0,91,0.00,,,0.00,meteohub,2013-04-27 06:32:00,
2013-04-27 01:37:00,48.0,45.5,30.10,SE,135,3.0,7.0,91,0.00,,,0.00,meteohub,2013-04-27 06:37:00,
2013-04-27 01:42:00,47.8,45.3,30.10,NNW,338,2.0,7.0,91,0.00,,,0.00,meteohub,2013-04-27 06:42:00,
2013-04-27 01:47:00,47.8,45.3,30.10,ESE,113,8.0,8.0,91,0.00,,,0.00,meteohub,2013-04-27 06:47:00,
2013-04-27 01:52:00,48.0,45.5,30.10,SE,135,4.0,8.0,91,0.03,,,0.03,meteohub,2013-04-27 06:52:00,
2013-04-27 01:57:00,48.0,45.5,30.10,SE,135,6.0,8.0,91,0.03,,,0.03,meteohub,2013-04-27 06:57:00,
2013-04-27 02:02:00,48.2,45.7,30.08,SE,135,2.0,8.0,91,0.03,,,0.03,meteohub,2013-04-27 07:02:00,
2013-04-27 02:07:00,48.2,45.7,30.08,SW,225,2.0,6.0,91,0.03,,,0.03,meteohub,2013-04-27 07:07:00,
2013-04-27 02:12:00,48.4,45.9,30.08,ESE,113,4.0,6.0,91,0.03,,,0.03,meteohub,2013-04-27 07:12:00,
2013-04-27 02:17:00,48.4,45.9,30.08,East,90,3.0,4.0,91,0.03,,,0.03,meteohub,2013-04-27 07:17:00,
2013-04-27 02:22:00,48.4,45.9,30.07,ESE,113,6.0,7.0,91,0.03,,,0.03,meteohub,2013-04-27 07:22:00,
2013-04-27 02:27:00,48.2,45.7,30.07,SSE,158,2.0,7.0,91,0.03,,,0.03,meteohub,2013-04-27 07:27:00,
2013-04-27 02:32:00,48.2,45.7,30.07,NE,45,3.0,6.0,91,0.03,,,0.03,meteohub,2013-04-27 07:32:00,
2013-04-27 02:37:00,48.4,45.9,30.07,SE,135,2.0,6.0,91,0.03,,,0.03,meteohub,2013-04-27 07:37:00,
2013-04-27 02:42:00,48.4,45.9,30.06,ESE,113,4.0,4.0,91,0.03,,,0.03,meteohub,2013-04-27 07:42:00,
2013-04-27 02:47:00,48.4,45.9,30.06,SE,135,5.0,5.0,91,0.00,,,0.03,meteohub,2013-04-27 07:47:00,
2013-04-27 02:52:00,48.4,45.9,30.06,SE,135,4.0,6.0,91,0.00,,,0.03,meteohub,2013-04-27 07:52:00,
2013-04-27 02:57:00,48.4,45.9,30.06,SSE,158,4.0,6.0,91,0.00,,,0.03,meteohub,2013-04-27 07:57:00,
2013-04-27 03:02:00,48.4,45.9,30.06,ESE,113,6.0,8.0,91,0.00,,,0.03,meteohub,2013-04-27 08:02:00,
2013-04-27 03:07:00,48.6,46.0,30.05,ESE,113,3.0,8.0,91,0.00,,,0.03,meteohub,2013-04-27 08:07:00,
2013-04-27 03:12:00,48.4,45.9,30.06,ENE,68,0.0,6.0,91,0.00,,,0.03,meteohub,2013-04-27 08:12:00,
2013-04-27 03:17:00,48.4,45.9,30.06,ENE,68,1.0,6.0,91,0.00,,,0.03,meteohub,2013-04-27 08:17:00,
2013-04-27 03:22:00,48.4,45.9,30.06,ENE,68,4.0,5.0,91,0.00,,,0.03,meteohub,2013-04-27 08:22:00,
2013-04-27 03:27:00,48.6,46.0,30.06,ESE,113,4.0,4.0,91,0.00,,,0.03,meteohub,2013-04-27 08:27:00,
2013-04-27 03:32:00,48.6,46.0,30.06,SE,135,6.0,6.0,91,0.00,,,0.03,meteohub,2013-04-27 08:32:00,
2013-04-27 03:37:00,48.6,46.0,30.06,ESE,113,3.0,6.0,91,0.00,,,0.03,meteohub,2013-04-27 08:37:00,
2013-04-27 03:42:00,48.6,46.0,30.05,ENE,68,0.0,6.0,91,0.00,,,0.03,meteohub,2013-04-27 08:42:00,
2013-04-27 03:47:00,48.6,46.0,30.05,South,180,4.0,6.0,91,0.00,,,0.03,meteohub,2013-04-27 08:47:00,
2013-04-27 03:52:00,48.6,46.0,30.05,SE,135,7.0,7.0,91,0.00,,,0.03,meteohub,2013-04-27 08:52:00,
2013-04-27 03:57:00,48.6,46.0,30.05,SSE,158,3.0,7.0,91,0.00,,,0.03,meteohub,2013-04-27 08:57:00,
2013-04-27 04:02:00,48.6,46.0,30.04,ESE,113,4.0,7.0,91,0.00,,,0.03,meteohub,2013-04-27 09:02:00,
2013-04-27 04:07:00,48.6,46.0,30.04,SE,135,4.0,7.0,91,0.00,,,0.03,meteohub,2013-04-27 09:07:00,
2013-04-27 04:12:00,48.6,46.0,30.04,East,90,7.0,7.0,91,0.00,,,0.03,meteohub,2013-04-27 09:12:00,
2013-04-27 04:17:00,48.6,46.0,30.04,ESE,113,3.0,9.0,91,0.00,,,0.03,meteohub,2013-04-27 09:17:00,
2013-04-27 04:22:00,48.6,46.0,30.02,ESE,113,4.0,9.0,91,0.00,,,0.03,meteohub,2013-04-27 09:22:00,
2013-04-27 04:27:00,48.6,46.0,30.02,ESE,113,7.0,7.0,91,0.00,,,0.03,meteohub,2013-04-27 09:27:00,
2013-04-27 04:32:00,48.6,46.0,30.02,SE,135,3.0,8.0,91,0.00,,,0.03,meteohub,2013-04-27 09:32:00,
2013-04-27 04:37:00,48.6,46.0,30.02,ESE,113,7.0,8.0,91,0.00,,,0.03,meteohub,2013-04-27 09:37:00,
2013-04-27 04:42:00,48.6,46.0,30.01,SE,135,8.0,8.0,91,0.00,,,0.03,meteohub,2013-04-27 09:42:00,
2013-04-27 04:47:00,48.4,45.9,30.01,ESE,113,5.0,8.0,91,0.00,,,0.03,meteohub,2013-04-27 09:47:00,
2013-04-27 04:52:00,48.4,45.9,30.01,SE,135,6.0,8.0,91,0.00,,,0.03,meteohub,2013-04-27 09:52:00,
2013-04-27 04:57:00,48.4,45.9,30.01,ENE,68,4.0,8.0,91,0.00,,,0.03,meteohub,2013-04-27 09:57:00,
2013-04-27 05:02:00,48.6,46.0,29.99,SE,135,5.0,6.0,91,0.00,,,0.03,meteohub,2013-04-27 10:02:00,
2013-04-27 05:07:00,48.6,46.0,29.99,ESE,113,5.0,8.0,91,0.00,,,0.03,meteohub,2013-04-27 10:07:00,
2013-04-27 05:12:00,48.6,46.0,29.99,SSE,158,2.0,8.0,91,0.00,,,0.03,meteohub,2013-04-27 10:12:00,
2013-04-27 05:17:00,48.7,46.2,29.99,SE,135,4.0,8.0,91,0.00,,,0.03,meteohub,2013-04-27 10:17:00,
2013-04-27 05:22:00,48.6,46.0,29.99,South,180,1.0,5.0,91,0.00,,,0.03,meteohub,2013-04-27 10:22:00,
2013-04-27 05:27:00,48.6,46.0,29.99,SE,135,4.0,5.0,91,0.00,,,0.03,meteohub,2013-04-27 10:27:00,
2013-04-27 05:31:00,48.6,46.0,29.99,ENE,68,0.0,4.0,91,0.00,,,0.03,meteohub,2013-04-27 10:31:00,
2013-04-27 05:37:00,48.6,46.0,29.99,ENE,68,0.0,4.0,91,0.00,,,0.03,meteohub,2013-04-27 10:37:00,
2013-04-27 05:42:00,48.6,46.0,29.99,NNE,23,2.0,4.0,91,0.00,,,0.03,meteohub,2013-04-27 10:42:00,
2013-04-27 05:47:00,48.6,46.0,29.99,ESE,113,2.0,3.0,91,0.00,,,0.03,meteohub,2013-04-27 10:47:00,
2013-04-27 05:52:00,48.7,46.2,29.99,SE,135,2.0,3.0,91,0.00,,,0.03,meteohub,2013-04-27 10:52:00,
2013-04-27 05:57:00,48.6,46.0,29.99,East,90,0.0,3.0,91,0.00,,,0.03,meteohub,2013-04-27 10:57:00,
2013-04-27 06:01:00,48.6,46.0,29.98,ESE,113,0.0,2.0,91,0.00,,,0.03,meteohub,2013-04-27 11:01:00,
2013-04-27 06:07:00,48.7,46.2,29.98,NNE,23,0.0,2.0,91,0.00,,,0.03,meteohub,2013-04-27 11:07:00,
2013-04-27 06:12:00,48.7,46.2,29.98,ESE,113,1.0,2.0,91,0.00,,,0.03,meteohub,2013-04-27 11:12:00,
2013-04-27 06:17:00,48.7,46.2,29.98,ENE,68,0.0,3.0,91,0.00,,,0.03,meteohub,2013-04-27 11:17:00,
2013-04-27 06:22:00,48.7,46.2,30.00,ESE,113,0.0,3.0,91,0.00,,,0.03,meteohub,2013-04-27 11:22:00,
2013-04-27 06:27:00,48.7,46.2,30.00,ESE,113,2.0,2.0,91,0.00,,,0.03,meteohub,2013-04-27 11:27:00,
2013-04-27 06:32:00,48.9,46.4,30.00,East,90,0.0,2.0,91,0.00,,,0.03,meteohub,2013-04-27 11:32:00,
2013-04-27 06:37:00,48.7,46.2,30.00,SSE,158,0.0,2.0,91,0.00,,,0.03,meteohub,2013-04-27 11:37:00,
2013-04-27 06:42:00,48.9,46.4,30.01,SE,135,0.0,2.0,91,0.00,,,0.03,meteohub,2013-04-27 11:42:00,
2013-04-27 06:47:00,49.1,46.6,30.01,East,90,0.0,2.0,91,0.00,,,0.03,meteohub,2013-04-27 11:47:00,
2013-04-27 06:52:00,49.1,46.6,30.01,SE,135,0.0,2.0,91,0.00,,,0.03,meteohub,2013-04-27 11:52:00,
2013-04-27 06:57:00,48.9,46.4,30.01,ESE,113,0.0,2.0,91,0.00,,,0.03,meteohub,2013-04-27 11:57:00,
2013-04-27 07:02:00,49.1,46.6,30.03,SSW,203,2.0,2.0,91,0.00,,,0.03,meteohub,2013-04-27 12:02:00,
2013-04-27 07:07:00,48.9,46.4,30.03,NNW,338,0.0,3.0,91,0.00,,,0.03,meteohub,2013-04-27 12:07:00,
2013-04-27 07:12:00,48.9,46.4,30.03,NNE,23,0.0,3.0,91,0.00,,,0.03,meteohub,2013-04-27 12:12:00,
2013-04-27 07:17:00,48.9,46.4,30.03,South,180,0.0,2.0,91,0.00,,,0.03,meteohub,2013-04-27 12:17:00,
2013-04-27 07:22:00,48.9,46.4,30.03,NE,45,0.0,1.0,91,0.00,,,0.03,meteohub,2013-04-27 12:22:00,
2013-04-27 07:27:00,49.1,46.6,30.03,SE,135,0.0,2.0,91,0.00,,,0.03,meteohub,2013-04-27 12:27:00,
2013-04-27 07:32:00,49.1,46.6,30.03,SSE,158,0.0,2.0,91,0.00,,,0.03,meteohub,2013-04-27 12:32:00,
2013-04-27 07:37:00,49.3,46.8,30.03,SSE,158,0.0,3.0,91,0.00,,,0.03,meteohub,2013-04-27 12:37:00,
2013-04-27 07:42:00,49.3,46.8,30.02,ESE,113,2.0,3.0,91,0.00,,,0.03,meteohub,2013-04-27 12:42:00,
2013-04-27 07:47:00,49.5,46.9,30.02,ESE,113,4.0,4.0,91,0.00,,,0.03,meteohub,2013-04-27 12:47:00,
2013-04-27 07:52:00,49.5,46.9,30.02,South,180,0.0,4.0,91,0.00,,,0.03,meteohub,2013-04-27 12:52:00,
2013-04-27 07:57:00,49.3,46.8,30.02,ESE,113,2.0,4.0,91,0.00,,,0.03,meteohub,2013-04-27 12:57:00,
2013-04-27 08:02:00,49.3,46.8,30.02,NE,45,0.0,4.0,91,0.00,,,0.03,meteohub,2013-04-27 13:02:00,
2013-04-27 08:07:00,49.3,46.8,30.02,ESE,113,3.0,3.0,91,0.00,,,0.03,meteohub,2013-04-27 13:07:00,
2013-04-27 08:12:00,49.3,46.8,30.02,SE,135,0.0,4.0,91,0.00,,,0.03,meteohub,2013-04-27 13:12:00,
2013-04-27 08:17:00,49.5,46.9,30.02,SE,135,2.0,4.0,91,0.00,,,0.03,meteohub,2013-04-27 13:17:00,
2013-04-27 08:22:00,49.3,46.8,30.04,East,90,2.0,4.0,91,0.00,,,0.03,meteohub,2013-04-27 13:22:00,
2013-04-27 08:27:00,49.3,46.8,30.04,South,180,0.0,3.0,91,0.00,,,0.03,meteohub,2013-04-27 13:27:00,
2013-04-27 08:32:00,49.3,46.8,30.04,SE,135,2.0,2.0,91,0.00,,,0.03,meteohub,2013-04-27 13:32:00,
2013-04-27 08:37:00,49.3,46.8,30.04,ENE,68,0.0,2.0,91,0.00,,,0.03,meteohub,2013-04-27 13:37:00,
2013-04-27 08:42:00,49.5,46.9,30.04,NE,45,0.0,2.0,91,0.00,,,0.03,meteohub,2013-04-27 13:42:00,
2013-04-27 08:48:00,49.5,46.9,30.04,ESE,113,3.0,3.0,91,0.00,,,0.03,meteohub,2013-04-27 13:48:00,
2013-04-27 08:53:00,49.5,46.9,30.04,ESE,113,0.0,3.0,91,0.00,,,0.03,meteohub,2013-04-27 13:53:00,
2013-04-27 08:58:00,49.6,47.1,30.04,SE,135,0.0,3.0,91,0.00,,,0.03,meteohub,2013-04-27 13:58:00,
2013-04-27 09:03:00,49.8,47.3,30.04,SE,135,0.0,3.0,91,0.00,,,0.03,meteohub,2013-04-27 14:03:00,
2013-04-27 09:08:00,49.8,47.3,30.04,ESE,113,2.0,3.0,91,0.00,,,0.03,meteohub,2013-04-27 14:08:00,
2013-04-27 09:13:00,49.8,47.3,30.04,SE,135,0.0,3.0,91,0.00,,,0.03,meteohub,2013-04-27 14:13:00,
2013-04-27 09:18:00,49.8,47.3,30.04,ESE,113,6.0,6.0,91,0.00,,,0.03,meteohub,2013-04-27 14:18:00,
2013-04-27 09:23:00,50.2,47.7,30.04,ESE,113,0.0,2.0,91,0.00,,,0.03,meteohub,2013-04-27 14:23:00,
2013-04-27 09:28:00,50.0,47.5,30.04,ENE,68,2.0,6.0,91,0.00,,,0.03,meteohub,2013-04-27 14:28:00,
2013-04-27 09:33:00,50.0,47.5,30.04,ESE,113,3.0,6.0,91,0.00,,,0.03,meteohub,2013-04-27 14:33:00,
2013-04-27 09:38:00,50.2,47.7,30.01,SE,135,6.0,6.0,91,0.00,,,0.03,meteohub,2013-04-27 14:38:00,
2013-04-27 09:43:00,50.5,48.0,30.01,SE,135,4.0,6.0,91,0.00,,,0.03,meteohub,2013-04-27 14:43:00,
2013-04-27 09:49:00,50.5,48.0,30.01,East,90,3.0,6.0,91,0.00,,,0.03,meteohub,2013-04-27 14:49:00,
2013-04-27 09:53:00,50.7,48.2,30.01,East,90,3.0,6.0,91,0.00,,,0.03,meteohub,2013-04-27 14:53:00,
2013-04-27 09:59:00,50.7,48.2,30.01,SE,135,3.0,5.0,91,0.00,,,0.03,meteohub,2013-04-27 14:59:00,
2013-04-27 10:04:00,50.7,48.2,30.01,ESE,113,4.0,5.0,91,0.00,,,0.03,meteohub,2013-04-27 15:04:00,
2013-04-27 10:09:00,50.7,48.2,30.01,ESE,113,4.0,4.0,91,0.03,,,0.06,meteohub,2013-04-27 15:09:00,
2013-04-27 10:14:00,50.7,48.2,30.01,ESE,113,6.0,6.0,91,0.03,,,0.06,meteohub,2013-04-27 15:14:00,
2013-04-27 10:19:00,50.7,48.2,30.01,SE,135,4.0,6.0,91,0.03,,,0.06,meteohub,2013-04-27 15:19:00,
2013-04-27 10:24:00,50.7,48.2,30.01,SE,135,3.0,6.0,91,0.03,,,0.06,meteohub,2013-04-27 15:24:00,
2013-04-27 10:29:00,50.9,48.4,30.01,SE,135,2.0,6.0,91,0.03,,,0.06,meteohub,2013-04-27 15:29:00,
2013-04-27 10:34:00,50.9,48.4,30.01,SE,135,3.0,4.0,91,0.03,,,0.06,meteohub,2013-04-27 15:34:00,
2013-04-27 10:39:00,51.3,48.7,30.00,SE,135,3.0,4.0,91,0.03,,,0.06,meteohub,2013-04-27 15:39:00,
2013-04-27 10:44:00,51.1,48.6,30.00,East,90,2.0,4.0,91,0.03,,,0.06,meteohub,2013-04-27 15:44:00,
2013-04-27 10:49:00,51.3,48.7,30.00,ESE,113,2.0,4.0,91,0.03,,,0.06,meteohub,2013-04-27 15:49:00,
2013-04-27 10:54:00,51.3,48.7,30.00,ESE,113,2.0,4.0,91,0.03,,,0.06,meteohub,2013-04-27 15:54:00,
2013-04-27 10:59:00,51.6,49.1,30.01,SSE,158,0.0,4.0,91,0.03,,,0.06,meteohub,2013-04-27 15:59:00,
2013-04-27 11:04:00,51.4,48.9,30.01,East,90,2.0,4.0,91,0.00,,,0.06,meteohub,2013-04-27 16:04:00,
2013-04-27 11:09:00,51.4,48.9,30.01,SE,135,0.0,4.0,91,0.00,,,0.06,meteohub,2013-04-27 16:09:00,
2013-04-27 11:14:00,51.4,48.9,30.01,SSW,203,0.0,4.0,91,0.00,,,0.06,meteohub,2013-04-27 16:14:00,
2013-04-27 11:19:00,51.4,48.9,30.00,ESE,113,1.0,3.0,91,0.00,,,0.06,meteohub,2013-04-27 16:19:00,
2013-04-27 11:24:00,51.6,49.1,30.00,SE,135,2.0,3.0,91,0.00,,,0.06,meteohub,2013-04-27 16:24:00,
2013-04-27 11:29:00,51.6,49.1,30.00,SE,135,2.0,3.0,91,0.03,,,0.08,meteohub,2013-04-27 16:29:00,
2013-04-27 11:34:00,51.4,48.9,30.00,SSE,158,2.0,4.0,91,0.06,,,0.11,meteohub,2013-04-27 16:34:00,
2013-04-27 11:39:00,51.6,49.1,30.00,SE,135,2.0,4.0,91,0.06,,,0.11,meteohub,2013-04-27 16:39:00,
2013-04-27 11:44:00,51.6,49.1,30.00,ENE,68,2.0,4.0,91,0.06,,,0.11,meteohub,2013-04-27 16:44:00,
2013-04-27 11:49:00,51.6,49.1,30.00,SSE,158,2.0,6.0,91,0.06,,,0.11,meteohub,2013-04-27 16:49:00,
2013-04-27 11:54:00,51.8,49.3,29.99,ESE,113,5.0,6.0,91,0.08,,,0.14,meteohub,2013-04-27 16:54:00,
2013-04-27 11:59:00,52.0,49.5,30.00,SE,135,4.0,6.0,91,0.08,,,0.14,meteohub,2013-04-27 16:59:00,
2013-04-27 12:04:00,51.6,49.1,30.01,ESE,113,3.0,5.0,91,0.08,,,0.14,meteohub,2013-04-27 17:04:00,
2013-04-27 12:09:00,52.0,49.5,30.00,ESE,113,7.0,7.0,91,0.08,,,0.14,meteohub,2013-04-27 17:09:00,
2013-04-27 12:14:00,52.0,49.5,30.00,ESE,113,3.0,6.0,91,0.08,,,0.14,meteohub,2013-04-27 17:14:00,
2013-04-27 12:19:00,51.8,49.3,29.99,ESE,113,3.0,7.0,91,0.08,,,0.14,meteohub,2013-04-27 17:19:00,
2013-04-27 12:24:00,52.0,49.5,29.99,ESE,113,3.0,7.0,91,0.06,,,0.14,meteohub,2013-04-27 17:24:00,
2013-04-27 12:29:00,51.6,49.1,29.99,South,180,6.0,6.0,91,0.06,,,0.14,meteohub,2013-04-27 17:29:00,
2013-04-27 12:34:00,52.0,49.5,29.99,South,180,4.0,4.0,91,0.03,,,0.14,meteohub,2013-04-27 17:34:00,
2013-04-27 12:39:00,51.6,49.1,29.99,ESE,113,2.0,6.0,91,0.03,,,0.14,meteohub,2013-04-27 17:39:00,
2013-04-27 12:44:00,52.0,49.5,29.99,SE,135,4.0,6.0,91,0.03,,,0.14,meteohub,2013-04-27 17:44:00,
2013-04-27 12:49:00,51.8,49.3,29.99,South,180,0.0,6.0,91,0.06,,,0.17,meteohub,2013-04-27 17:49:00,
2013-04-27 12:54:00,52.0,49.5,29.99,SSE,158,0.0,4.0,91,0.03,,,0.17,meteohub,2013-04-27 17:54:00,
2013-04-27 12:59:00,51.8,49.3,29.99,East,90,0.0,4.0,91,0.03,,,0.17,meteohub,2013-04-27 17:59:00,
2013-04-27 13:04:00,51.8,49.3,29.99,West,270,4.0,4.0,91,0.03,,,0.17,meteohub,2013-04-27 18:04:00,
2013-04-27 13:09:00,52.0,49.5,29.99,South,180,0.0,4.0,91,0.03,,,0.17,meteohub,2013-04-27 18:09:00,
2013-04-27 13:14:00,52.2,49.6,29.99,ESE,113,0.0,4.0,91,0.03,,,0.17,meteohub,2013-04-27 18:14:00,
2013-04-27 13:19:00,52.7,50.4,29.98,SW,225,0.0,4.0,92,0.03,,,0.17,meteohub,2013-04-27 18:19:00,
2013-04-27 13:24:00,52.7,50.4,29.98,SE,135,0.0,2.0,92,0.06,,,0.19,meteohub,2013-04-27 18:24:00,
2013-04-27 13:29:00,52.9,50.5,29.98,South,180,0.0,2.0,92,0.06,,,0.19,meteohub,2013-04-27 18:29:00,
2013-04-27 13:34:00,52.9,50.5,29.98,SSW,203,3.0,3.0,92,0.06,,,0.19,meteohub,2013-04-27 18:34:00,
2013-04-27 13:39:00,53.4,51.1,29.98,SSW,203,2.0,3.0,92,0.06,,,0.19,meteohub,2013-04-27 18:39:00,
2013-04-27 13:44:00,53.4,50.9,29.98,SE,135,0.0,3.0,91,0.06,,,0.19,meteohub,2013-04-27 18:44:00,
2013-04-27 13:49:00,53.6,51.3,29.98,SW,225,3.0,3.0,92,0.03,,,0.19,meteohub,2013-04-27 18:49:00,
2013-04-27 13:54:00,53.8,51.4,29.98,South,180,3.0,3.0,92,0.03,,,0.19,meteohub,2013-04-27 18:54:00,
2013-04-27 13:59:00,53.8,51.4,29.99,SSE,158,2.0,3.0,92,0.03,,,0.19,meteohub,2013-04-27 18:59:00,
2013-04-27 14:04:00,54.1,51.6,29.99,WSW,248,2.0,3.0,91,0.03,,,0.19,meteohub,2013-04-27 19:04:00,
2013-04-27 14:09:00,54.1,51.6,29.99,SW,225,3.0,3.0,91,0.03,,,0.19,meteohub,2013-04-27 19:09:00,
2013-04-27 14:14:00,54.1,51.6,29.99,South,180,0.0,3.0,91,0.03,,,0.19,meteohub,2013-04-27 19:14:00,
2013-04-27 14:19:00,54.1,51.6,29.98,South,180,1.0,4.0,91,0.03,,,0.19,meteohub,2013-04-27 19:19:00,
2013-04-27 14:24:00,54.1,51.6,29.98,ESE,113,0.0,4.0,91,0.00,,,0.19,meteohub,2013-04-27 19:24:00,
2013-04-27 14:29:00,54.1,51.6,29.98,West,270,0.0,3.0,91,0.00,,,0.19,meteohub,2013-04-27 19:29:00,
2013-04-27 14:34:00,54.1,51.6,29.98,WSW,248,0.0,1.0,91,0.00,,,0.19,meteohub,2013-04-27 19:34:00,
2013-04-27 14:39:00,54.3,51.8,29.98,South,180,4.0,4.0,91,0.00,,,0.19,meteohub,2013-04-27 19:39:00,
2013-04-27 14:44:00,54.3,51.4,29.98,SSE,158,2.0,2.0,90,0.00,,,0.19,meteohub,2013-04-27 19:44:00,
2013-04-27 14:49:00,54.3,51.4,29.98,WNW,293,4.0,4.0,90,0.00,,,0.19,meteohub,2013-04-27 19:49:00,
2013-04-27 14:54:00,54.3,51.4,29.98,SW,225,3.0,4.0,90,0.00,,,0.19,meteohub,2013-04-27 19:54:00,
2013-04-27 15:00:00,54.5,51.6,29.98,West,270,2.0,4.0,90,0.00,,,0.19,meteohub,2013-04-27 20:00:00,
2013-04-27 15:04:00,54.3,51.4,29.98,SW,225,2.0,4.0,90,0.00,,,0.19,meteohub,2013-04-27 20:04:00,
2013-04-27 15:09:00,54.3,51.4,29.98,WSW,248,5.0,5.0,90,0.00,,,0.19,meteohub,2013-04-27 20:09:00,
2013-04-27 15:15:00,54.3,51.4,29.98,WSW,248,4.0,5.0,90,0.00,,,0.19,meteohub,2013-04-27 20:15:00,
2013-04-27 15:20:00,54.3,51.4,29.98,NW,315,5.0,5.0,90,0.00,,,0.19,meteohub,2013-04-27 20:20:00,
2013-04-27 15:24:00,54.5,51.6,29.98,West,270,4.0,5.0,90,0.00,,,0.19,meteohub,2013-04-27 20:24:00,
2013-04-27 15:29:00,54.9,52.0,29.97,SSE,158,0.0,5.0,90,0.00,,,0.19,meteohub,2013-04-27 20:29:00,
2013-04-27 15:35:00,54.9,52.0,29.97,SW,225,1.0,5.0,90,0.00,,,0.19,meteohub,2013-04-27 20:35:00,
2013-04-27 15:40:00,54.9,52.0,29.96,WSW,248,3.0,4.0,90,0.00,,,0.19,meteohub,2013-04-27 20:40:00,
2013-04-27 15:45:00,54.9,52.0,29.96,WSW,248,3.0,3.0,90,0.00,,,0.19,meteohub,2013-04-27 20:45:00,
2013-04-27 15:50:00,54.9,52.0,29.96,WSW,248,2.0,3.0,90,0.00,,,0.19,meteohub,2013-04-27 20:50:00,
2013-04-27 15:55:00,54.9,52.0,29.96,WNW,293,3.0,3.0,90,0.00,,,0.19,meteohub,2013-04-27 20:55:00,
2013-04-27 16:00:00,54.9,52.0,29.95,NW,315,0.0,4.0,90,0.00,,,0.19,meteohub,2013-04-27 21:00:00,
2013-04-27 16:05:00,55.0,52.2,29.95,WNW,293,1.0,4.0,90,0.00,,,0.19,meteohub,2013-04-27 21:05:00,
2013-04-27 16:10:00,55.0,52.2,29.95,West,270,5.0,5.0,90,0.00,,,0.19,meteohub,2013-04-27 21:10:00,
2013-04-27 16:15:00,54.9,52.0,29.95,WSW,248,2.0,6.0,90,0.00,,,0.19,meteohub,2013-04-27 21:15:00,
2013-04-27 16:20:00,54.9,52.0,29.94,WSW,248,2.0,6.0,90,0.00,,,0.19,meteohub,2013-04-27 21:20:00,
2013-04-27 16:25:00,55.0,52.2,29.94,WSW,248,5.0,6.0,90,0.00,,,0.19,meteohub,2013-04-27 21:25:00,
2013-04-27 16:30:00,55.0,52.2,29.94,NW,315,5.0,5.0,90,0.00,,,0.19,meteohub,2013-04-27 21:30:00,
2013-04-27 16:35:00,55.0,52.2,29.94,West,270,3.0,6.0,90,0.00,,,0.19,meteohub,2013-04-27 21:35:00,
2013-04-27 16:40:00,54.9,52.0,29.95,WNW,293,4.0,6.0,90,0.00,,,0.19,meteohub,2013-04-27 21:40:00,
2013-04-27 16:45:00,54.9,51.6,29.95,NW,315,0.0,5.0,89,0.00,,,0.19,meteohub,2013-04-27 21:45:00,
2013-04-27 16:50:00,54.9,52.0,29.95,NW,315,4.0,5.0,90,0.00,,,0.19,meteohub,2013-04-27 21:50:00,
2013-04-27 16:55:00,54.9,51.6,29.95,West,270,4.0,4.0,89,0.00,,,0.19,meteohub,2013-04-27 21:55:00,
2013-04-27 17:00:00,54.7,51.4,29.95,WSW,248,4.0,7.0,89,0.00,,,0.19,meteohub,2013-04-27 22:00:00,
2013-04-27 17:05:00,54.9,51.6,29.95,West,270,5.0,7.0,89,0.00,,,0.19,meteohub,2013-04-27 22:05:00,
2013-04-27 17:10:00,54.7,51.4,29.95,NNW,338,2.0,7.0,89,0.00,,,0.19,meteohub,2013-04-27 22:10:00,
2013-04-27 17:15:00,54.7,51.4,29.95,West,270,0.0,5.0,89,0.00,,,0.19,meteohub,2013-04-27 22:15:00,
2013-04-27 17:20:00,54.5,51.3,29.94,NW,315,3.0,5.0,89,0.00,,,0.19,meteohub,2013-04-27 22:20:00,
2013-04-27 17:25:00,54.7,51.4,29.94,West,270,3.0,5.0,89,0.00,,,0.19,meteohub,2013-04-27 22:25:00,
2013-04-27 17:30:00,54.7,51.8,29.94,WSW,248,0.0,5.0,90,0.00,,,0.19,meteohub,2013-04-27 22:30:00,
2013-04-27 17:35:00,54.5,51.6,29.94,NE,45,0.0,5.0,90,0.00,,,0.19,meteohub,2013-04-27 22:35:00,
2013-04-27 17:40:00,54.5,51.6,29.95,West,270,2.0,3.0,90,0.00,,,0.19,meteohub,2013-04-27 22:40:00,
2013-04-27 17:45:00,54.3,51.4,29.95,WSW,248,2.0,3.0,90,0.00,,,0.19,meteohub,2013-04-27 22:45:00,
2013-04-27 17:50:00,54.3,51.4,29.95,NNE,23,0.0,5.0,90,0.00,,,0.19,meteohub,2013-04-27 22:50:00,
2013-04-27 17:55:00,54.0,51.1,29.96,WNW,293,2.0,6.0,90,0.00,,,0.19,meteohub,2013-04-27 22:55:00,
2013-04-27 18:00:00,54.1,51.3,29.95,NW,315,1.0,6.0,90,0.00,,,0.19,meteohub,2013-04-27 23:00:00,
2013-04-27 18:05:00,53.8,50.9,29.95,WNW,293,3.0,6.0,90,0.00,,,0.19,meteohub,2013-04-27 23:05:00,
2013-04-27 18:10:00,53.8,50.9,29.95,NW,315,6.0,6.0,90,0.00,,,0.19,meteohub,2013-04-27 23:10:00,
2013-04-27 18:15:00,53.6,50.7,29.95,WNW,293,4.0,6.0,90,0.00,,,0.19,meteohub,2013-04-27 23:15:00,
2013-04-27 18:20:00,53.6,50.7,29.95,NW,315,0.0,6.0,90,0.00,,,0.19,meteohub,2013-04-27 23:20:00,
2013-04-27 18:25:00,53.4,50.5,29.95,NNW,338,3.0,4.0,90,0.00,,,0.19,meteohub,2013-04-27 23:25:00,
2013-04-27 18:30:00,53.2,50.4,29.95,West,270,5.0,5.0,90,0.00,,,0.19,meteohub,2013-04-27 23:30:00,
2013-04-27 18:35:00,53.2,50.4,29.95,West,270,6.0,6.0,90,0.00,,,0.19,meteohub,2013-04-27 23:35:00,
2013-04-27 18:40:00,53.1,50.2,29.96,West,270,3.0,6.0,90,0.00,,,0.19,meteohub,2013-04-27 23:40:00,
2013-04-27 18:45:00,53.1,50.2,29.96,WSW,248,2.0,6.0,90,0.00,,,0.19,meteohub,2013-04-27 23:45:00,
2013-04-27 18:50:00,53.1,50.2,29.96,NW,315,3.0,6.0,90,0.00,,,0.19,meteohub,2013-04-27 23:50:00,
2013-04-27 18:55:00,52.7,49.8,29.96,WNW,293,3.0,4.0,90,0.00,,,0.19,meteohub,2013-04-27 23:55:00,
2013-04-27 19:00:00,52.7,49.8,29.96,WNW,293,4.0,4.0,90,0.00,,,0.19,meteohub,2013-04-28 00:00:00,
2013-04-27 19:05:00,52.7,49.8,29.96,West,270,4.0,5.0,90,0.00,,,0.19,meteohub,2013-04-28 00:05:00,
2013-04-27 19:10:00,52.3,49.5,29.96,NW,315,6.0,6.0,90,0.00,,,0.19,meteohub,2013-04-28 00:10:00,
2013-04-27 19:15:00,52.3,49.5,29.96,ENE,68,3.0,6.0,90,0.00,,,0.19,meteohub,2013-04-28 00:15:00,
2013-04-27 19:20:00,52.2,49.3,29.95,NW,315,2.0,6.0,90,0.00,,,0.19,meteohub,2013-04-28 00:20:00,
2013-04-27 19:25:00,52.0,49.1,29.95,NW,315,2.0,6.0,90,0.00,,,0.19,meteohub,2013-04-28 00:25:00,
2013-04-27 19:30:00,52.0,49.5,29.95,NW,315,3.0,5.0,91,0.00,,,0.19,meteohub,2013-04-28 00:30:00,
2013-04-27 19:35:00,52.0,49.5,29.95,ENE,68,0.0,5.0,91,0.00,,,0.19,meteohub,2013-04-28 00:35:00,
2013-04-27 19:40:00,51.8,49.3,29.96,NW,315,0.0,5.0,91,0.00,,,0.19,meteohub,2013-04-28 00:40:00,
2013-04-27 19:45:00,51.8,49.3,29.96,NW,315,0.0,2.0,91,0.00,,,0.19,meteohub,2013-04-28 00:45:00,
2013-04-27 19:50:00,51.6,49.1,29.96,West,270,4.0,4.0,91,0.00,,,0.19,meteohub,2013-04-28 00:50:00,
2013-04-27 19:55:00,51.4,48.9,29.96,NW,315,0.0,4.0,91,0.00,,,0.19,meteohub,2013-04-28 00:55:00,
2013-04-27 20:00:00,51.6,49.1,29.96,NE,45,1.0,4.0,91,0.00,,,0.19,meteohub,2013-04-28 01:00:00,
2013-04-27 20:05:00,51.4,48.9,29.96,NNW,338,3.0,4.0,91,0.00,,,0.19,meteohub,2013-04-28 01:05:00,
2013-04-27 20:10:00,51.4,48.9,29.96,WNW,293,3.0,3.0,91,0.00,,,0.19,meteohub,2013-04-28 01:10:00,
2013-04-27 20:15:00,51.3,48.7,29.96,WNW,293,0.0,3.0,91,0.00,,,0.19,meteohub,2013-04-28 01:15:00,
2013-04-27 20:20:00,51.3,48.7,29.95,WNW,293,2.0,3.0,91,0.00,,,0.19,meteohub,2013-04-28 01:20:00,
2013-04-27 20:25:00,51.3,48.7,29.95,NNE,23,3.0,3.0,91,0.00,,,0.19,meteohub,2013-04-28 01:25:00,
2013-04-27 20:31:00,51.3,48.7,29.95,NW,315,2.0,3.0,91,0.00,,,0.19,meteohub,2013-04-28 01:31:00,
2013-04-27 20:35:00,51.1,48.6,29.95,WNW,293,4.0,4.0,91,0.00,,,0.19,meteohub,2013-04-28 01:35:00,
2013-04-27 20:40:00,51.3,48.7,29.97,SE,135,0.0,4.0,91,0.00,,,0.19,meteohub,2013-04-28 01:40:00,
2013-04-27 20:46:00,51.1,48.6,29.97,NNW,338,2.0,4.0,91,0.00,,,0.19,meteohub,2013-04-28 01:46:00,
2013-04-27 20:51:00,50.9,48.4,29.97,ENE,68,0.0,4.0,91,0.00,,,0.19,meteohub,2013-04-28 01:51:00,
2013-04-27 20:56:00,50.9,48.4,29.97,NNW,338,2.0,2.0,91,0.00,,,0.19,meteohub,2013-04-28 01:56:00,
2013-04-27 21:01:00,50.9,48.4,29.97,NW,315,2.0,2.0,91,0.00,,,0.19,meteohub,2013-04-28 02:01:00,
2013-04-27 21:06:00,50.9,48.4,29.97,WNW,293,2.0,2.0,91,0.00,,,0.19,meteohub,2013-04-28 02:06:00,
2013-04-27 21:11:00,50.9,48.4,29.97,NW,315,2.0,4.0,91,0.00,,,0.19,meteohub,2013-04-28 02:11:00,
2013-04-27 21:16:00,50.9,48.4,29.97,West,270,1.0,4.0,91,0.00,,,0.19,meteohub,2013-04-28 02:16:00,
2013-04-27 21:21:00,50.9,48.4,29.98,NNW,338,4.0,5.0,91,0.00,,,0.19,meteohub,2013-04-28 02:21:00,
2013-04-27 21:26:00,50.9,48.4,29.98,NNW,338,2.0,5.0,91,0.00,,,0.19,meteohub,2013-04-28 02:26:00,
2013-04-27 21:31:00,50.9,48.4,29.98,West,270,2.0,5.0,91,0.00,,,0.19,meteohub,2013-04-28 02:31:00,
2013-04-27 21:36:00,50.9,48.4,29.98,West,270,3.0,4.0,91,0.00,,,0.19,meteohub,2013-04-28 02:36:00,
2013-04-27 21:41:00,50.7,48.2,29.98,WSW,248,2.0,3.0,91,0.00,,,0.19,meteohub,2013-04-28 02:41:00,
2013-04-27 21:46:00,50.7,48.2,29.98,WSW,248,2.0,3.0,91,0.00,,,0.19,meteohub,2013-04-28 02:46:00,
2013-04-27 21:51:00,50.7,48.2,29.98,NW,315,0.0,3.0,91,0.00,,,0.19,meteohub,2013-04-28 02:51:00,
2013-04-27 21:56:00,50.7,48.2,29.98,NNE,23,0.0,2.0,91,0.00,,,0.19,meteohub,2013-04-28 02:56:00,
2013-04-27 22:01:00,50.7,48.2,29.98,West,270,2.0,2.0,91,0.00,,,0.19,meteohub,2013-04-28 03:01:00,
2013-04-27 22:06:00,50.7,48.2,29.98,South,180,2.0,3.0,91,0.00,,,0.19,meteohub,2013-04-28 03:06:00,
2013-04-27 22:11:00,50.7,48.2,29.98,NW,315,2.0,3.0,91,0.00,,,0.19,meteohub,2013-04-28 03:11:00,
2013-04-27 22:16:00,50.7,48.6,29.98,NE,45,3.0,3.0,92,0.00,,,0.19,meteohub,2013-04-28 03:16:00,
2013-04-27 22:21:00,50.7,48.6,29.98,NW,315,1.0,3.0,92,0.00,,,0.19,meteohub,2013-04-28 03:21:00,
2013-04-27 22:26:00,50.7,48.6,29.98,North,0,0.0,3.0,92,0.00,,,0.19,meteohub,2013-04-28 03:26:00,
2013-04-27 22:31:00,50.7,48.6,29.98,West,270,2.0,3.0,92,0.00,,,0.19,meteohub,2013-04-28 03:31:00,
2013-04-27 22:36:00,50.7,48.6,29.98,WSW,248,5.0,5.0,92,0.00,,,0.19,meteohub,2013-04-28 03:36:00,
2013-04-27 22:41:00,50.9,48.7,29.98,North,0,1.0,5.0,92,0.00,,,0.19,meteohub,2013-04-28 03:41:00,
2013-04-27 22:46:00,50.7,48.6,29.98,SSE,158,3.0,5.0,92,0.00,,,0.19,meteohub,2013-04-28 03:46:00,
2013-04-27 22:51:00,50.9,48.7,29.98,WSW,248,2.0,5.0,92,0.00,,,0.19,meteohub,2013-04-28 03:51:00,
2013-04-27 22:56:00,50.9,48.7,29.98,NW,315,2.0,3.0,92,0.00,,,0.19,meteohub,2013-04-28 03:56:00,
2013-04-27 23:01:00,50.7,48.6,29.98,NW,315,0.0,3.0,92,0.00,,,0.19,meteohub,2013-04-28 04:01:00,
2013-04-27 23:02:00,50.7,48.6,29.98,NW,315,0.0,3.0,92,0.00,,,0.19,meteohub,2013-04-28 04:02:00,
2013-04-27 23:07:00,50.7,48.6,29.98,SW,225,1.0,3.0,92,0.00,,,0.19,meteohub,2013-04-28 04:07:00,
2013-04-27 23:12:00,50.9,48.7,29.98,NW,315,2.0,3.0,92,0.00,,,0.19,meteohub,2013-04-28 04:12:00,
2013-04-27 23:17:00,50.7,48.6,29.98,West,270,2.0,2.0,92,0.00,,,0.19,meteohub,2013-04-28 04:17:00,
2013-04-27 23:22:00,50.9,48.7,29.97,North,0,0.0,2.0,92,0.00,,,0.19,meteohub,2013-04-28 04:22:00,
2013-04-27 23:27:00,50.7,48.6,29.97,NNW,338,0.0,2.0,92,0.00,,,0.19,meteohub,2013-04-28 04:27:00,
2013-04-27 23:32:00,50.7,48.6,29.97,SSE,158,2.0,2.0,92,0.00,,,0.19,meteohub,2013-04-28 04:32:00,
2013-04-27 23:37:00,50.7,48.6,29.97,NNW,338,0.0,0.0,92,0.00,,,0.19,meteohub,2013-04-28 04:37:00,
2013-04-27 23:42:00,50.7,48.6,29.96,North,0,2.0,2.0,92,0.00,,,0.19,meteohub,2013-04-28 04:42:00,
2013-04-27 23:47:00,50.7,48.6,29.96,NNE,23,1.0,2.0,92,0.00,,,0.19,meteohub,2013-04-28 04:47:00,
2013-04-27 23:52:00,50.7,48.6,29.96,NW,315,1.0,2.0,92,0.00,,,0.19,meteohub,2013-04-28 04:52:00,
2013-04-27 23:57:00,50.7,48.6,29.96,NNW,338,0.0,2.0,92,0.00,,,0.19,meteohub,2013-04-28 04:57:00,